Black River (Missouri), Leeper (07062500)

StateMissouriLatestLow (586 cfs)
RiverBlack RiverRatingObservedEstimated
Updated2020-09-24 19:30 (1 hour ago)Flood - The river is flooding. Obstacles can be treacherous or deadly. The river should be avoided at this stage for casual trips and definitely for the inexperienced. Trips should be attempted only with protective gear and equipment.Flood(none)3460
Discharge586 cfs (median: 448 cfs)High - The river is high and potentially dangerous, especially for the young and / or inexperienced. Normal stream obstacles are sometimes difficult to navigate. Extended distances can be attempted, but canoe travel may not be advisable.High(none)1125
Height2.8 feetGood - Conditions are ideal for a canoe or kayak. Boats typically will drag on fewer than one-quarter of riffles, if at all, and portages are unnecessary or rare. Normal float lengths can be attempted without a problem.Good(none)691
TrendSteady (falling over 24 hours)Low - River is low but can still be floated. Some riffles are okay but most come with significant dragging and might need a portage. Float lengths should be reduced to accommodate low flow, dragging, and portages.Low(none)413
USGSExternal icon USGS Site (External icon Google Maps)Poor - River is too low to float comfortably. Most or all riffles will drag or must be portaged and some obstacles (such as slick shelf rock) cause undue problems. Avoid the river at this stage for casual paddling trips.Poor(none)218

Trending Data

Plot Image

Trips for Black River (Missouri), Leeper (07062500)

DateStartEndDistanceConditionDischargeHeightFishingDetails

A total of 0 rows are displayed.

Condition Descriptions

Fishing Conditions

Fish Species

Notes

Classic Trip List

The classic River Trips application is still available for use. It is updated with the new system using a data retrofit. It is no longer maintained. The original River Trips application is no longer updated (as of 1 Dec 2016) but can be checked for errors or for the condition of the data before it was converted to the new system.

Gauge Data Table

ObservationHeightDischargeMaximum
Discharge
Minimum
Discharge
Mean
Discharge
P05P10P20P25P50
(Median)
P75P80P90P95
2020-09-24 19:30 2.80 586 2100 (1985) 62 (1966) 527 177 201 232 258 448 609 688 1040 1530
2020-09-24 18:30 2.80 586 2100 (1985) 62 (1966) 527 177 201 232 258 448 609 688 1040 1530
2020-09-24 17:30 2.79 582 2100 (1985) 62 (1966) 527 177 201 232 258 448 609 688 1040 1530
2020-09-24 16:30 2.80 586 2100 (1985) 62 (1966) 527 177 201 232 258 448 609 688 1040 1530
2020-09-24 15:30 2.81 590 2100 (1985) 62 (1966) 527 177 201 232 258 448 609 688 1040 1530
2020-09-24 14:30 2.81 590 2100 (1985) 62 (1966) 527 177 201 232 258 448 609 688 1040 1530
2020-09-24 13:30 2.83 599 2100 (1985) 62 (1966) 527 177 201 232 258 448 609 688 1040 1530
2020-09-24 12:30 2.84 603 2100 (1985) 62 (1966) 527 177 201 232 258 448 609 688 1040 1530
2020-09-24 11:30 2.84 603 2100 (1985) 62 (1966) 527 177 201 232 258 448 609 688 1040 1530
2020-09-24 10:30 2.84 603 2100 (1985) 62 (1966) 527 177 201 232 258 448 609 688 1040 1530
2020-09-24 09:30 2.83 599 2100 (1985) 62 (1966) 527 177 201 232 258 448 609 688 1040 1530
2020-09-24 08:30 2.85 608 2100 (1985) 62 (1966) 527 177 201 232 258 448 609 688 1040 1530
2020-09-24 07:30 2.84 603 2100 (1985) 62 (1966) 527 177 201 232 258 448 609 688 1040 1530
2020-09-24 06:30 2.84 603 2100 (1985) 62 (1966) 527 177 201 232 258 448 609 688 1040 1530
2020-09-24 05:30 2.85 608 2100 (1985) 62 (1966) 527 177 201 232 258 448 609 688 1040 1530
2020-09-24 04:30 2.85 608 2100 (1985) 62 (1966) 527 177 201 232 258 448 609 688 1040 1530
2020-09-24 03:30 2.85 608 2100 (1985) 62 (1966) 527 177 201 232 258 448 609 688 1040 1530
2020-09-24 02:30 2.85 608 2100 (1985) 62 (1966) 527 177 201 232 258 448 609 688 1040 1530
2020-09-24 01:30 2.85 608 2100 (1985) 62 (1966) 527 177 201 232 258 448 609 688 1040 1530
2020-09-24 00:30 2.84 603 2100 (1985) 62 (1966) 527 177 201 232 258 448 609 688 1040 1530
2020-09-23 23:30 2.84 603 2140 (1985) 62 (1966) 530 180 202 229 269 457 622 683 1130 1400
2020-09-23 22:30 2.85 608 2140 (1985) 62 (1966) 530 180 202 229 269 457 622 683 1130 1400
2020-09-23 21:30 2.84 603 2140 (1985) 62 (1966) 530 180 202 229 269 457 622 683 1130 1400
2020-09-23 20:30 2.85 608 2140 (1985) 62 (1966) 530 180 202 229 269 457 622 683 1130 1400
2020-09-23 19:30 2.84 603 2140 (1985) 62 (1966) 530 180 202 229 269 457 622 683 1130 1400
2020-09-23 18:30 2.84 603 2140 (1985) 62 (1966) 530 180 202 229 269 457 622 683 1130 1400
2020-09-23 17:30 2.85 608 2140 (1985) 62 (1966) 530 180 202 229 269 457 622 683 1130 1400
2020-09-23 16:30 2.84 603 2140 (1985) 62 (1966) 530 180 202 229 269 457 622 683 1130 1400
2020-09-23 15:30 2.85 608 2140 (1985) 62 (1966) 530 180 202 229 269 457 622 683 1130 1400
2020-09-23 14:30 2.84 603 2140 (1985) 62 (1966) 530 180 202 229 269 457 622 683 1130 1400
2020-09-23 13:30 2.85 608 2140 (1985) 62 (1966) 530 180 202 229 269 457 622 683 1130 1400
2020-09-23 12:30 2.85 608 2140 (1985) 62 (1966) 530 180 202 229 269 457 622 683 1130 1400
2020-09-23 11:30 2.85 608 2140 (1985) 62 (1966) 530 180 202 229 269 457 622 683 1130 1400
2020-09-23 10:30 2.85 608 2140 (1985) 62 (1966) 530 180 202 229 269 457 622 683 1130 1400
2020-09-23 09:30 2.85 608 2140 (1985) 62 (1966) 530 180 202 229 269 457 622 683 1130 1400
2020-09-23 08:30 2.85 608 2140 (1985) 62 (1966) 530 180 202 229 269 457 622 683 1130 1400
2020-09-23 07:30 2.86 612 2140 (1985) 62 (1966) 530 180 202 229 269 457 622 683 1130 1400
2020-09-23 06:30 2.84 603 2140 (1985) 62 (1966) 530 180 202 229 269 457 622 683 1130 1400
2020-09-23 05:30 2.85 608 2140 (1985) 62 (1966) 530 180 202 229 269 457 622 683 1130 1400
2020-09-23 04:30 2.86 612 2140 (1985) 62 (1966) 530 180 202 229 269 457 622 683 1130 1400
2020-09-23 03:30 2.85 608 2140 (1985) 62 (1966) 530 180 202 229 269 457 622 683 1130 1400
2020-09-23 02:30 2.86 612 2140 (1985) 62 (1966) 530 180 202 229 269 457 622 683 1130 1400
2020-09-23 01:30 2.85 608 2140 (1985) 62 (1966) 530 180 202 229 269 457 622 683 1130 1400
2020-09-23 00:30 2.84 603 2140 (1985) 62 (1966) 530 180 202 229 269 457 622 683 1130 1400
2020-09-22 23:30 2.85 608 2540 (1965) 64 (1966) 561 184 203 229 248 463 579 669 1220 2070
2020-09-22 22:30 2.85 608 2540 (1965) 64 (1966) 561 184 203 229 248 463 579 669 1220 2070
2020-09-22 21:30 2.85 608 2540 (1965) 64 (1966) 561 184 203 229 248 463 579 669 1220 2070
2020-09-22 20:30 2.85 608 2540 (1965) 64 (1966) 561 184 203 229 248 463 579 669 1220 2070
2020-09-22 19:30 2.85 608 2540 (1965) 64 (1966) 561 184 203 229 248 463 579 669 1220 2070
2020-09-22 18:30 2.85 608 2540 (1965) 64 (1966) 561 184 203 229 248 463 579 669 1220 2070
2020-09-22 17:30 2.85 608 2540 (1965) 64 (1966) 561 184 203 229 248 463 579 669 1220 2070
2020-09-22 16:30 2.85 608 2540 (1965) 64 (1966) 561 184 203 229 248 463 579 669 1220 2070
2020-09-22 15:30 2.85 608 2540 (1965) 64 (1966) 561 184 203 229 248 463 579 669 1220 2070
2020-09-22 14:30 2.84 603 2540 (1965) 64 (1966) 561 184 203 229 248 463 579 669 1220 2070
2020-09-22 13:30 2.85 608 2540 (1965) 64 (1966) 561 184 203 229 248 463 579 669 1220 2070
2020-09-22 12:30 2.85 608 2540 (1965) 64 (1966) 561 184 203 229 248 463 579 669 1220 2070
2020-09-22 11:30 2.86 612 2540 (1965) 64 (1966) 561 184 203 229 248 463 579 669 1220 2070
2020-09-22 10:30 2.85 608 2540 (1965) 64 (1966) 561 184 203 229 248 463 579 669 1220 2070
2020-09-22 09:30 2.85 608 2540 (1965) 64 (1966) 561 184 203 229 248 463 579 669 1220 2070
2020-09-22 08:30 2.85 608 2540 (1965) 64 (1966) 561 184 203 229 248 463 579 669 1220 2070
2020-09-22 07:30 2.85 608 2540 (1965) 64 (1966) 561 184 203 229 248 463 579 669 1220 2070
2020-09-22 06:30 2.84 603 2540 (1965) 64 (1966) 561 184 203 229 248 463 579 669 1220 2070
2020-09-22 05:30 2.85 608 2540 (1965) 64 (1966) 561 184 203 229 248 463 579 669 1220 2070
2020-09-22 04:30 2.85 608 2540 (1965) 64 (1966) 561 184 203 229 248 463 579 669 1220 2070
2020-09-22 03:30 2.84 603 2540 (1965) 64 (1966) 561 184 203 229 248 463 579 669 1220 2070
2020-09-22 02:30 2.84 603 2540 (1965) 64 (1966) 561 184 203 229 248 463 579 669 1220 2070
2020-09-22 01:30 2.84 603 2540 (1965) 64 (1966) 561 184 203 229 248 463 579 669 1220 2070
2020-09-22 00:30 2.85 608 2540 (1965) 64 (1966) 561 184 203 229 248 463 579 669 1220 2070
2020-09-21 23:30 2.84 603 2500 (2016) 80 (1966) 528 193 206 231 249 402 561 624 983 1830
2020-09-21 22:30 2.83 599 2500 (2016) 80 (1966) 528 193 206 231 249 402 561 624 983 1830
2020-09-21 21:30 2.84 603 2500 (2016) 80 (1966) 528 193 206 231 249 402 561 624 983 1830
2020-09-21 20:30 2.83 599 2500 (2016) 80 (1966) 528 193 206 231 249 402 561 624 983 1830
2020-09-21 19:30 2.82 595 2500 (2016) 80 (1966) 528 193 206 231 249 402 561 624 983 1830
2020-09-21 18:30 2.82 595 2500 (2016) 80 (1966) 528 193 206 231 249 402 561 624 983 1830
2020-09-21 17:30 2.81 590 2500 (2016) 80 (1966) 528 193 206 231 249 402 561 624 983 1830
2020-09-21 16:30 2.80 586 2500 (2016) 80 (1966) 528 193 206 231 249 402 561 624 983 1830
2020-09-21 15:30 2.80 586 2500 (2016) 80 (1966) 528 193 206 231 249 402 561 624 983 1830
2020-09-21 14:30 2.76 569 2500 (2016) 80 (1966) 528 193 206 231 249 402 561 624 983 1830
2020-09-21 13:30 2.75 565 2500 (2016) 80 (1966) 528 193 206 231 249 402 561 624 983 1830
2020-09-21 12:30 2.72 552 2500 (2016) 80 (1966) 528 193 206 231 249 402 561 624 983 1830
2020-09-21 11:30 2.70 544 2500 (2016) 80 (1966) 528 193 206 231 249 402 561 624 983 1830
2020-09-21 10:30 2.68 535 2500 (2016) 80 (1966) 528 193 206 231 249 402 561 624 983 1830
2020-09-21 09:30 2.68 535 2500 (2016) 80 (1966) 528 193 206 231 249 402 561 624 983 1830
2020-09-21 08:30 2.68 535 2500 (2016) 80 (1966) 528 193 206 231 249 402 561 624 983 1830
2020-09-21 07:30 2.67 531 2500 (2016) 80 (1966) 528 193 206 231 249 402 561 624 983 1830
2020-09-21 06:30 2.69 539 2500 (2016) 80 (1966) 528 193 206 231 249 402 561 624 983 1830
2020-09-21 05:30 2.67 531 2500 (2016) 80 (1966) 528 193 206 231 249 402 561 624 983 1830
2020-09-21 04:30 2.68 535 2500 (2016) 80 (1966) 528 193 206 231 249 402 561 624 983 1830
2020-09-21 03:30 2.68 535 2500 (2016) 80 (1966) 528 193 206 231 249 402 561 624 983 1830
2020-09-21 02:30 2.69 539 2500 (2016) 80 (1966) 528 193 206 231 249 402 561 624 983 1830
2020-09-21 01:30 2.69 539 2500 (2016) 80 (1966) 528 193 206 231 249 402 561 624 983 1830
2020-09-21 00:30 2.69 539 2500 (2016) 80 (1966) 528 193 206 231 249 402 561 624 983 1830
2020-09-20 23:30 2.68 535 2120 (1985) 165 (1955) 530 197 205 229 243 410 635 656 1100 1820
2020-09-20 22:30 2.69 539 2120 (1985) 165 (1955) 530 197 205 229 243 410 635 656 1100 1820
2020-09-20 21:30 2.68 535 2120 (1985) 165 (1955) 530 197 205 229 243 410 635 656 1100 1820
2020-09-20 20:30 2.68 535 2120 (1985) 165 (1955) 530 197 205 229 243 410 635 656 1100 1820
2020-09-20 19:30 2.69 539 2120 (1985) 165 (1955) 530 197 205 229 243 410 635 656 1100 1820
2020-09-20 18:30 2.68 535 2120 (1985) 165 (1955) 530 197 205 229 243 410 635 656 1100 1820
2020-09-20 17:30 2.69 539 2120 (1985) 165 (1955) 530 197 205 229 243 410 635 656 1100 1820
2020-09-20 16:30 2.68 535 2120 (1985) 165 (1955) 530 197 205 229 243 410 635 656 1100 1820
2020-09-20 15:30 2.69 539 2120 (1985) 165 (1955) 530 197 205 229 243 410 635 656 1100 1820
2020-09-20 14:30 2.69 539 2120 (1985) 165 (1955) 530 197 205 229 243 410 635 656 1100 1820
2020-09-20 13:30 2.68 535 2120 (1985) 165 (1955) 530 197 205 229 243 410 635 656 1100 1820
2020-09-20 12:30 2.69 539 2120 (1985) 165 (1955) 530 197 205 229 243 410 635 656 1100 1820
2020-09-20 11:30 2.68 535 2120 (1985) 165 (1955) 530 197 205 229 243 410 635 656 1100 1820
2020-09-20 10:30 2.69 539 2120 (1985) 165 (1955) 530 197 205 229 243 410 635 656 1100 1820
2020-09-20 09:30 2.70 544 2120 (1985) 165 (1955) 530 197 205 229 243 410 635 656 1100 1820
2020-09-20 08:30 2.69 539 2120 (1985) 165 (1955) 530 197 205 229 243 410 635 656 1100 1820
2020-09-20 07:30 2.70 544 2120 (1985) 165 (1955) 530 197 205 229 243 410 635 656 1100 1820
2020-09-20 06:30 2.69 539 2120 (1985) 165 (1955) 530 197 205 229 243 410 635 656 1100 1820
2020-09-20 05:30 2.69 539 2120 (1985) 165 (1955) 530 197 205 229 243 410 635 656 1100 1820
2020-09-20 04:30 2.69 539 2120 (1985) 165 (1955) 530 197 205 229 243 410 635 656 1100 1820
2020-09-20 03:30 2.69 539 2120 (1985) 165 (1955) 530 197 205 229 243 410 635 656 1100 1820
2020-09-20 02:30 2.70 544 2120 (1985) 165 (1955) 530 197 205 229 243 410 635 656 1100 1820
2020-09-20 01:30 2.69 539 2120 (1985) 165 (1955) 530 197 205 229 243 410 635 656 1100 1820
2020-09-20 00:30 2.69 539 2120 (1985) 165 (1955) 530 197 205 229 243 410 635 656 1100 1820
2020-09-19 23:30 2.70 544 2100 (1965) 165 (1955) 533 193 209 239 243 372 616 709 1130 1870
2020-09-19 22:30 2.69 539 2100 (1965) 165 (1955) 533 193 209 239 243 372 616 709 1130 1870
2020-09-19 21:30 2.70 544 2100 (1965) 165 (1955) 533 193 209 239 243 372 616 709 1130 1870
2020-09-19 20:30 2.70 544 2100 (1965) 165 (1955) 533 193 209 239 243 372 616 709 1130 1870
2020-09-19 19:30 2.69 539 2100 (1965) 165 (1955) 533 193 209 239 243 372 616 709 1130 1870
2020-09-19 18:30 2.69 539 2100 (1965) 165 (1955) 533 193 209 239 243 372 616 709 1130 1870
2020-09-19 17:30 2.69 539 2100 (1965) 165 (1955) 533 193 209 239 243 372 616 709 1130 1870
2020-09-19 16:30 2.70 544 2100 (1965) 165 (1955) 533 193 209 239 243 372 616 709 1130 1870
2020-09-19 15:30 2.70 544 2100 (1965) 165 (1955) 533 193 209 239 243 372 616 709 1130 1870
2020-09-19 14:30 2.70 544 2100 (1965) 165 (1955) 533 193 209 239 243 372 616 709 1130 1870
2020-09-19 13:30 2.71 548 2100 (1965) 165 (1955) 533 193 209 239 243 372 616 709 1130 1870
2020-09-19 12:30 2.70 544 2100 (1965) 165 (1955) 533 193 209 239 243 372 616 709 1130 1870
2020-09-19 11:30 2.71 548 2100 (1965) 165 (1955) 533 193 209 239 243 372 616 709 1130 1870
2020-09-19 10:30 2.71 548 2100 (1965) 165 (1955) 533 193 209 239 243 372 616 709 1130 1870
2020-09-19 09:30 2.71 548 2100 (1965) 165 (1955) 533 193 209 239 243 372 616 709 1130 1870
2020-09-19 08:30 2.71 548 2100 (1965) 165 (1955) 533 193 209 239 243 372 616 709 1130 1870
2020-09-19 07:30 2.71 548 2100 (1965) 165 (1955) 533 193 209 239 243 372 616 709 1130 1870
2020-09-19 06:30 2.71 548 2100 (1965) 165 (1955) 533 193 209 239 243 372 616 709 1130 1870
2020-09-19 05:30 2.70 544 2100 (1965) 165 (1955) 533 193 209 239 243 372 616 709 1130 1870
2020-09-19 04:30 2.71 548 2100 (1965) 165 (1955) 533 193 209 239 243 372 616 709 1130 1870
2020-09-19 03:30 2.72 552 2100 (1965) 165 (1955) 533 193 209 239 243 372 616 709 1130 1870
2020-09-19 02:30 2.72 552 2100 (1965) 165 (1955) 533 193 209 239 243 372 616 709 1130 1870
2020-09-19 01:30 2.72 552 2100 (1965) 165 (1955) 533 193 209 239 243 372 616 709 1130 1870
2020-09-19 00:30 2.73 556 2100 (1965) 165 (1955) 533 193 209 239 243 372 616 709 1130 1870
2020-09-18 23:30 2.72 552 2250 (1965) 165 (1955) 542 199 210 241 249 376 593 658 1140 1930
2020-09-18 22:30 2.73 556 2250 (1965) 165 (1955) 542 199 210 241 249 376 593 658 1140 1930
2020-09-18 21:30 2.74 560 2250 (1965) 165 (1955) 542 199 210 241 249 376 593 658 1140 1930
2020-09-18 20:30 2.74 560 2250 (1965) 165 (1955) 542 199 210 241 249 376 593 658 1140 1930
2020-09-18 19:30 2.74 560 2250 (1965) 165 (1955) 542 199 210 241 249 376 593 658 1140 1930
2020-09-18 18:30 2.75 565 2250 (1965) 165 (1955) 542 199 210 241 249 376 593 658 1140 1930
2020-09-18 17:30 2.76 569 2250 (1965) 165 (1955) 542 199 210 241 249 376 593 658 1140 1930
2020-09-18 16:30 2.77 573 2250 (1965) 165 (1955) 542 199 210 241 249 376 593 658 1140 1930
2020-09-18 15:30 2.79 582 2250 (1965) 165 (1955) 542 199 210 241 249 376 593 658 1140 1930
2020-09-18 14:30 2.81 590 2250 (1965) 165 (1955) 542 199 210 241 249 376 593 658 1140 1930
2020-09-18 13:30 2.84 603 2250 (1965) 165 (1955) 542 199 210 241 249 376 593 658 1140 1930
2020-09-18 12:30 2.86 612 2250 (1965) 165 (1955) 542 199 210 241 249 376 593 658 1140 1930
2020-09-18 11:30 2.89 625 2250 (1965) 165 (1955) 542 199 210 241 249 376 593 658 1140 1930
2020-09-18 10:30 2.90 630 2250 (1965) 165 (1955) 542 199 210 241 249 376 593 658 1140 1930
2020-09-18 09:30 2.90 630 2250 (1965) 165 (1955) 542 199 210 241 249 376 593 658 1140 1930
2020-09-18 08:30 2.90 630 2250 (1965) 165 (1955) 542 199 210 241 249 376 593 658 1140 1930
2020-09-18 07:30 2.90 630 2250 (1965) 165 (1955) 542 199 210 241 249 376 593 658 1140 1930
2020-09-18 06:30 2.89 625 2250 (1965) 165 (1955) 542 199 210 241 249 376 593 658 1140 1930
2020-09-18 05:30 2.90 630 2250 (1965) 165 (1955) 542 199 210 241 249 376 593 658 1140 1930
2020-09-18 04:30 2.89 625 2250 (1965) 165 (1955) 542 199 210 241 249 376 593 658 1140 1930
2020-09-18 03:30 2.89 625 2250 (1965) 165 (1955) 542 199 210 241 249 376 593 658 1140 1930
2020-09-18 02:30 2.90 630 2250 (1965) 165 (1955) 542 199 210 241 249 376 593 658 1140 1930
2020-09-18 01:30 2.90 630 2250 (1965) 165 (1955) 542 199 210 241 249 376 593 658 1140 1930
2020-09-18 00:30 2.90 630 2250 (1965) 165 (1955) 542 199 210 241 249 376 593 658 1140 1930
2020-09-17 23:30 2.89 625 2260 (1965) 167 (1955) 553 199 212 238 247 389 625 709 1130 2040
2020-09-17 22:30 2.90 630 2260 (1965) 167 (1955) 553 199 212 238 247 389 625 709 1130 2040
2020-09-17 21:30 2.89 625 2260 (1965) 167 (1955) 553 199 212 238 247 389 625 709 1130 2040
2020-09-17 20:30 2.90 630 2260 (1965) 167 (1955) 553 199 212 238 247 389 625 709 1130 2040
2020-09-17 19:30 2.90 630 2260 (1965) 167 (1955) 553 199 212 238 247 389 625 709 1130 2040
2020-09-17 18:30 2.90 630 2260 (1965) 167 (1955) 553 199 212 238 247 389 625 709 1130 2040
2020-09-17 17:30 2.90 630 2260 (1965) 167 (1955) 553 199 212 238 247 389 625 709 1130 2040
2020-09-17 16:30 2.89 625 2260 (1965) 167 (1955) 553 199 212 238 247 389 625 709 1130 2040
2020-09-17 15:30 2.89 625 2260 (1965) 167 (1955) 553 199 212 238 247 389 625 709 1130 2040
2020-09-17 14:30 2.90 630 2260 (1965) 167 (1955) 553 199 212 238 247 389 625 709 1130 2040
2020-09-17 13:30 2.90 630 2260 (1965) 167 (1955) 553 199 212 238 247 389 625 709 1130 2040
2020-09-17 12:30 2.90 630 2260 (1965) 167 (1955) 553 199 212 238 247 389 625 709 1130 2040
2020-09-17 11:30 2.89 625 2260 (1965) 167 (1955) 553 199 212 238 247 389 625 709 1130 2040
2020-09-17 10:30 2.91 634 2260 (1965) 167 (1955) 553 199 212 238 247 389 625 709 1130 2040
2020-09-17 09:30 2.90 630 2260 (1965) 167 (1955) 553 199 212 238 247 389 625 709 1130 2040
2020-09-17 08:30 2.91 634 2260 (1965) 167 (1955) 553 199 212 238 247 389 625 709 1130 2040
2020-09-17 07:30 2.90 630 2260 (1965) 167 (1955) 553 199 212 238 247 389 625 709 1130 2040
2020-09-17 06:30 2.90 630 2260 (1965) 167 (1955) 553 199 212 238 247 389 625 709 1130 2040
2020-09-17 05:30 2.90 630 2260 (1965) 167 (1955) 553 199 212 238 247 389 625 709 1130 2040
2020-09-17 04:30 2.91 634 2260 (1965) 167 (1955) 553 199 212 238 247 389 625 709 1130 2040
2020-09-17 03:30 2.89 625 2260 (1965) 167 (1955) 553 199 212 238 247 389 625 709 1130 2040
2020-09-17 02:30 2.90 630 2260 (1965) 167 (1955) 553 199 212 238 247 389 625 709 1130 2040
2020-09-17 01:30 2.89 625 2260 (1965) 167 (1955) 553 199 212 238 247 389 625 709 1130 2040
2020-09-17 00:30 2.90 630 2260 (1965) 167 (1955) 553 199 212 238 247 389 625 709 1130 2040

A total of 188 rows are displayed for years 1949 through 2019.